createdAt,value
2017-10-12T00:01:40.927Z,8.13
2017-10-12T00:04:09.407Z,8.10
2017-10-12T00:06:37.685Z,5.70
2017-10-12T00:09:05.151Z,2.07
2017-10-12T00:11:32.655Z,4.63
2017-10-12T00:14:00.101Z,7.10
2017-10-12T00:16:27.576Z,3.90
2017-10-12T00:18:55.037Z,3.77
2017-10-12T00:21:22.499Z,9.87
2017-10-12T00:23:49.988Z,9.00
2017-10-12T00:26:17.460Z,8.43
2017-10-12T00:28:45.719Z,17.30
2017-10-12T00:31:13.183Z,13.50
2017-10-12T00:33:41.420Z,12.07
2017-10-12T00:36:08.884Z,10.00
2017-10-12T00:38:36.375Z,18.33
2017-10-12T00:41:04.607Z,21.40
2017-10-12T00:43:32.091Z,18.90
2017-10-12T00:46:00.323Z,11.33
2017-10-12T00:48:27.782Z,31.20
2017-10-12T00:50:55.279Z,13.40
2017-10-12T00:53:22.755Z,16.90
2017-10-12T00:55:51.013Z,26.50
2017-10-12T00:58:18.484Z,29.10
2017-10-12T01:00:46.755Z,18.53
2017-10-12T01:03:14.321Z,15.27
2017-10-12T01:05:42.144Z,25.23
2017-10-12T01:08:09.616Z,25.17
2017-10-12T01:10:37.874Z,26.53
2017-10-12T01:13:05.355Z,28.77
2017-10-12T01:15:32.853Z,17.67
2017-10-12T01:18:00.373Z,20.90
2017-10-12T01:20:27.842Z,14.77
2017-10-12T01:22:56.078Z,26.10
2017-10-12T01:25:23.573Z,19.50
2017-10-12T01:27:51.042Z,23.00
2017-10-12T01:30:19.321Z,21.00
2017-10-12T01:32:47.566Z,19.93
2017-10-12T01:35:15.129Z,19.30
2017-10-12T01:37:42.683Z,17.13
2017-10-12T01:40:10.155Z,14.47
2017-10-12T01:42:37.624Z,24.83
2017-10-12T01:45:05.878Z,20.30
2017-10-12T01:47:33.409Z,12.40
2017-10-12T01:50:00.907Z,19.67
2017-10-12T01:52:29.173Z,18.43
2017-10-12T01:54:56.727Z,13.37
2017-10-12T01:57:24.199Z,25.73
2017-10-12T01:59:52.443Z,20.23
2017-10-12T02:02:19.911Z,25.70
2017-10-12T02:04:47.397Z,22.20
2017-10-12T02:07:15.672Z,24.07
2017-10-12T02:09:43.898Z,20.67
2017-10-12T02:12:11.367Z,21.03
2017-10-12T02:14:38.830Z,22.67
2017-10-12T02:17:06.299Z,23.97
2017-10-12T02:19:34.216Z,23.00
2017-10-12T02:22:01.680Z,23.80
2017-10-12T02:24:29.155Z,18.30
2017-10-12T02:26:56.639Z,13.30
2017-10-12T02:29:24.107Z,17.37
2017-10-12T02:31:53.082Z,20.53
2017-10-12T02:34:20.572Z,23.37
2017-10-12T02:36:48.800Z,18.53
2017-10-12T02:39:16.286Z,13.73
2017-10-12T02:41:44.544Z,23.13
2017-10-12T02:44:12.029Z,29.43
2017-10-12T02:46:40.264Z,20.77
2017-10-12T02:49:07.739Z,21.73
2017-10-12T02:51:37.189Z,24.90
2017-10-12T02:54:04.660Z,17.97
2017-10-12T02:56:32.132Z,14.30
2017-10-12T02:58:59.608Z,18.40
2017-10-12T03:01:27.088Z,20.53
2017-10-12T03:03:55.323Z,16.70
2017-10-12T03:06:22.897Z,26.20
2017-10-12T03:08:50.456Z,15.30
2017-10-12T03:11:17.932Z,20.87
2017-10-12T03:13:46.179Z,21.30
2017-10-12T03:16:13.639Z,18.63
2017-10-12T03:18:41.123Z,20.77
2017-10-12T03:21:08.679Z,23.13
2017-10-12T03:23:36.934Z,13.10
2017-10-12T03:26:04.413Z,16.90
2017-10-12T03:28:32.657Z,12.30
2017-10-12T03:31:00.852Z,13.50
2017-10-12T03:33:28.330Z,20.10
2017-10-12T03:35:55.801Z,10.00
2017-10-12T03:38:24.035Z,11.93
2017-10-12T03:40:52.310Z,15.60
2017-10-12T03:43:19.774Z,14.33
2017-10-12T03:45:48.025Z,17.73
2017-10-12T03:48:15.511Z,15.40
2017-10-12T03:50:43.747Z,19.07
2017-10-12T03:53:11.343Z,11.73
2017-10-12T03:55:39.603Z,15.80
2017-10-12T03:58:07.067Z,11.40
2017-10-12T04:00:34.536Z,19.63
2017-10-12T04:03:02.771Z,19.10
2017-10-12T04:05:30.357Z,12.07
2017-10-12T04:07:57.912Z,15.83
2017-10-12T04:10:25.418Z,24.73
2017-10-12T04:12:52.883Z,12.33
2017-10-12T04:15:21.359Z,19.93
2017-10-12T04:17:48.866Z,20.30
2017-10-12T04:20:17.139Z,16.60
2017-10-12T04:22:44.594Z,21.83
2017-10-12T04:25:12.135Z,22.13
2017-10-12T04:27:39.716Z,13.00
2017-10-12T04:30:07.995Z,14.37
2017-10-12T04:32:36.976Z,20.53
2017-10-12T04:35:04.594Z,15.13
2017-10-12T04:37:32.079Z,10.33
2017-10-12T04:39:59.644Z,15.70
2017-10-12T04:42:27.116Z,19.20
2017-10-12T04:44:54.667Z,13.70
2017-10-12T04:47:22.136Z,25.30
2017-10-12T04:49:49.644Z,19.67
2017-10-12T04:52:17.130Z,18.40
2017-10-12T04:54:44.602Z,15.00
2017-10-12T04:57:12.323Z,8.20
2017-10-12T04:59:39.808Z,13.73
2017-10-12T05:02:07.290Z,16.87
2017-10-12T05:04:34.764Z,13.10
2017-10-12T05:07:02.247Z,24.40
2017-10-12T05:09:29.750Z,13.53
2017-10-12T05:11:57.316Z,18.23
2017-10-12T05:14:24.878Z,14.83
2017-10-12T05:16:52.431Z,14.60
2017-10-12T05:19:19.904Z,15.57
2017-10-12T05:21:48.164Z,13.87
2017-10-12T05:24:16.434Z,19.40
2017-10-12T05:26:44.624Z,12.13
2017-10-12T05:29:12.884Z,14.40
2017-10-12T05:31:40.355Z,14.50
2017-10-12T05:34:08.607Z,13.83
2017-10-12T05:36:36.078Z,13.90
2017-10-12T05:39:03.550Z,12.50
2017-10-12T05:41:31.791Z,22.77
2017-10-12T05:43:59.259Z,7.10
2017-10-12T05:46:26.734Z,20.70
2017-10-12T05:48:54.980Z,14.60
2017-10-12T05:51:22.444Z,10.20
2017-10-12T05:53:49.915Z,18.77
2017-10-12T05:56:18.168Z,14.80
2017-10-12T05:58:45.641Z,18.40
2017-10-12T06:01:13.119Z,12.67
2017-10-12T06:03:41.383Z,22.17
2017-10-12T06:06:09.615Z,19.33
2017-10-12T06:08:37.135Z,15.90
2017-10-12T06:11:04.664Z,14.00
2017-10-12T06:13:32.142Z,18.97
2017-10-12T06:16:00.375Z,23.60
2017-10-12T06:18:27.955Z,19.23
2017-10-12T06:20:55.511Z,24.50
2017-10-12T06:23:22.991Z,23.30
2017-10-12T06:25:51.365Z,11.10
2017-10-12T06:28:19.622Z,13.80
2017-10-12T06:30:47.197Z,14.63
2017-10-12T06:33:15.476Z,14.30
2017-10-12T06:35:43.715Z,16.13
2017-10-12T06:38:11.183Z,19.13
2017-10-12T06:40:38.800Z,22.60
2017-10-12T06:43:06.325Z,14.10
2017-10-12T06:45:33.837Z,13.83
2017-10-12T06:48:01.315Z,13.27
2017-10-12T06:50:28.775Z,17.40
2017-10-12T06:52:56.244Z,10.10
2017-10-12T06:55:23.716Z,24.57
2017-10-12T06:57:51.975Z,16.20
2017-10-12T07:00:19.428Z,14.20
2017-10-12T07:02:46.901Z,13.53
2017-10-12T07:05:15.140Z,13.63
2017-10-12T07:07:42.593Z,17.90
2017-10-12T07:10:10.080Z,9.43
2017-10-12T07:12:37.536Z,9.17
2017-10-12T07:15:05.770Z,13.43
2017-10-12T07:17:33.243Z,7.40
2017-10-12T07:20:00.712Z,11.00
2017-10-12T07:22:28.266Z,13.30
2017-10-12T07:24:55.745Z,21.73
2017-10-12T07:27:23.984Z,15.97
2017-10-12T07:29:51.465Z,15.37
2017-10-12T07:32:18.930Z,11.47
2017-10-12T07:34:47.150Z,14.93
2017-10-12T07:37:14.747Z,13.40
2017-10-12T07:39:42.236Z,10.00
2017-10-12T07:42:10.460Z,15.10
2017-10-12T07:44:37.943Z,19.00
2017-10-12T07:47:06.188Z,7.90
2017-10-12T07:49:33.667Z,10.23
2017-10-12T07:52:02.667Z,21.47
2017-10-12T07:54:30.227Z,12.60
2017-10-12T07:56:57.705Z,14.33
2017-10-12T07:59:25.964Z,18.20
2017-10-12T08:01:54.232Z,12.13
2017-10-12T08:04:21.687Z,9.20
2017-10-12T08:06:49.153Z,15.97
2017-10-12T08:09:17.399Z,9.20
2017-10-12T08:11:44.916Z,13.47
2017-10-12T08:14:12.409Z,8.53
2017-10-12T08:16:39.955Z,12.17
2017-10-12T08:19:07.437Z,8.10
2017-10-12T08:21:34.902Z,10.00
2017-10-12T08:24:02.379Z,16.20
2017-10-12T08:26:30.612Z,11.20
2017-10-12T08:28:58.072Z,9.40
2017-10-12T08:31:25.551Z,17.23
2017-10-12T08:33:53.007Z,16.60
2017-10-12T08:36:20.472Z,13.73
2017-10-12T08:38:48.335Z,8.93
2017-10-12T08:41:17.666Z,13.00
2017-10-12T08:43:46.133Z,11.23
2017-10-12T08:46:13.756Z,13.70
2017-10-12T08:48:41.268Z,13.77
2017-10-12T08:51:08.886Z,10.03
2017-10-12T08:53:36.415Z,9.27
2017-10-12T08:56:03.898Z,11.07
2017-10-12T08:58:31.371Z,14.37
2017-10-12T09:00:58.839Z,6.20
2017-10-12T09:03:27.090Z,6.83
2017-10-12T09:05:54.579Z,22.97
2017-10-12T09:08:22.056Z,7.63
2017-10-12T09:10:49.520Z,8.93
2017-10-12T09:13:16.988Z,10.63
2017-10-12T09:15:44.462Z,10.63
2017-10-12T09:18:11.930Z,11.90
2017-10-12T09:20:39.417Z,17.03
2017-10-12T09:23:07.669Z,11.67
2017-10-12T09:25:35.146Z,11.77
2017-10-12T09:28:03.333Z,17.20
2017-10-12T09:30:30.807Z,9.00
2017-10-12T09:32:58.271Z,7.27
2017-10-12T09:35:25.765Z,10.00
2017-10-12T09:37:53.844Z,10.30
2017-10-12T09:40:21.307Z,11.23
2017-10-12T09:42:49.543Z,8.40
2017-10-12T09:45:17.131Z,7.10
2017-10-12T09:47:44.691Z,17.67
2017-10-12T09:50:12.185Z,7.57
2017-10-12T09:52:39.961Z,17.17
2017-10-12T09:55:07.465Z,9.00
2017-10-12T09:57:34.926Z,11.57
2017-10-12T10:00:02.400Z,16.93
2017-10-12T10:02:30.628Z,9.23
2017-10-12T10:04:58.106Z,15.57
2017-10-12T10:07:25.579Z,9.77
2017-10-12T10:09:53.841Z,12.87
2017-10-12T10:12:21.299Z,8.37
2017-10-12T10:14:48.771Z,7.47
2017-10-12T10:17:17.000Z,12.30
2017-10-12T10:19:44.450Z,7.53
2017-10-12T10:22:11.928Z,10.23
2017-10-12T10:24:39.383Z,9.53
2017-10-12T10:27:06.846Z,7.47
2017-10-12T10:29:34.427Z,11.03
2017-10-12T10:32:02.648Z,5.97
2017-10-12T10:34:30.143Z,12.63
2017-10-12T10:36:57.623Z,4.60
2017-10-12T10:39:25.879Z,3.50
2017-10-12T10:41:54.103Z,7.70
2017-10-12T10:44:21.620Z,5.47
2017-10-12T10:46:49.852Z,11.50
2017-10-12T10:49:17.303Z,9.87
2017-10-12T10:51:44.786Z,4.50
2017-10-12T10:54:12.255Z,10.73
2017-10-12T10:56:39.720Z,7.73
2017-10-12T10:59:07.183Z,9.23
2017-10-12T11:01:35.427Z,5.73
2017-10-12T11:04:02.891Z,8.97
2017-10-12T11:06:30.367Z,11.50
2017-10-12T11:08:58.591Z,4.07
2017-10-12T11:11:26.087Z,7.23
2017-10-12T11:13:53.560Z,6.07
2017-10-12T11:16:21.835Z,8.73
2017-10-12T11:18:49.296Z,14.13
2017-10-12T11:21:17.548Z,11.10
2017-10-12T11:23:45.015Z,9.53
2017-10-12T11:26:12.462Z,7.50
2017-10-12T11:28:39.943Z,7.63
2017-10-12T11:31:08.168Z,9.30
2017-10-12T11:33:35.635Z,10.27
2017-10-12T11:36:03.117Z,11.30
2017-10-12T11:38:31.362Z,8.87
2017-10-12T11:40:58.848Z,9.17
2017-10-12T11:43:26.320Z,9.80
2017-10-12T11:45:54.540Z,5.80
2017-10-12T11:48:21.998Z,10.50
2017-10-12T11:50:49.464Z,10.37
2017-10-12T11:53:16.931Z,6.57
2017-10-12T11:55:44.392Z,7.30
2017-10-12T11:58:11.859Z,8.40
2017-10-12T12:00:39.339Z,8.13
2017-10-12T12:03:07.621Z,8.93
2017-10-12T12:05:35.867Z,5.03
2017-10-12T12:08:03.328Z,8.43
2017-10-12T12:10:30.792Z,8.80
2017-10-12T12:12:59.034Z,4.70
2017-10-12T12:15:26.492Z,6.53
2017-10-12T12:17:53.954Z,2.77
2017-10-12T12:20:21.429Z,9.27
2017-10-12T12:22:48.935Z,9.93
2017-10-12T12:25:16.416Z,6.23
2017-10-12T12:27:43.894Z,7.13
2017-10-12T12:30:11.351Z,5.50
2017-10-12T12:32:38.828Z,7.37
2017-10-12T12:35:07.076Z,14.70
2017-10-12T12:37:34.552Z,11.93
2017-10-12T12:40:02.797Z,12.30
2017-10-12T12:42:30.260Z,8.00
2017-10-12T12:44:57.773Z,8.00
2017-10-12T12:47:25.238Z,11.67
2017-10-12T12:49:52.711Z,4.70
2017-10-12T12:52:20.211Z,12.33
2017-10-12T12:54:48.479Z,15.73
2017-10-12T12:57:16.951Z,14.30
2017-10-12T12:59:44.429Z,17.13
2017-10-12T13:02:12.660Z,7.63
2017-10-12T13:04:40.112Z,9.93
2017-10-12T13:07:07.590Z,9.93
2017-10-12T13:09:35.046Z,6.67
2017-10-12T13:12:02.507Z,13.30
2017-10-12T13:14:30.679Z,5.10
2017-10-12T13:16:58.148Z,5.03
2017-10-12T13:19:25.643Z,6.20
2017-10-12T13:21:53.106Z,10.53
2017-10-12T13:24:20.575Z,10.47
2017-10-12T13:26:48.048Z,6.70
2017-10-12T13:29:15.527Z,4.33
2017-10-12T13:31:43.070Z,7.67
2017-10-12T13:34:10.544Z,8.00
2017-10-12T13:36:38.003Z,4.10
2017-10-12T13:39:05.471Z,10.63
2017-10-12T13:41:33.715Z,5.90
2017-10-12T13:44:01.222Z,4.80
2017-10-12T13:46:29.443Z,3.90
2017-10-12T13:48:56.910Z,8.10
2017-10-12T13:51:24.372Z,7.50
2017-10-12T13:53:51.831Z,10.70
2017-10-12T13:56:19.333Z,11.50
2017-10-12T13:58:46.793Z,8.10
2017-10-12T14:01:14.258Z,7.73
2017-10-12T14:03:41.736Z,6.87
2017-10-12T14:06:09.196Z,7.67
2017-10-12T14:08:36.652Z,9.50
2017-10-12T14:11:04.124Z,6.33
2017-10-12T14:13:31.634Z,7.50
2017-10-12T14:15:59.088Z,5.17
2017-10-12T14:18:26.559Z,4.40
2017-10-12T14:20:54.022Z,13.10
2017-10-12T14:23:21.482Z,4.13
2017-10-12T14:25:48.953Z,5.07
2017-10-12T14:28:16.410Z,7.10
2017-10-12T14:30:43.873Z,8.40
2017-10-12T14:33:11.335Z,3.63
2017-10-12T14:35:38.804Z,6.13
2017-10-12T14:38:06.256Z,6.47
2017-10-12T14:40:33.740Z,9.20
2017-10-12T14:43:01.972Z,8.67
2017-10-12T14:45:29.426Z,9.57
2017-10-12T14:47:56.900Z,7.83
2017-10-12T14:50:24.352Z,7.30
2017-10-12T14:52:51.814Z,7.93
2017-10-12T14:55:19.274Z,8.63
2017-10-12T14:57:47.503Z,13.43
2017-10-12T15:00:14.966Z,5.00
2017-10-12T15:02:42.436Z,8.83
2017-10-12T15:05:09.900Z,8.87
2017-10-12T15:07:37.376Z,8.43
2017-10-12T15:10:04.899Z,9.93
2017-10-12T15:12:32.385Z,6.70
2017-10-12T15:14:59.849Z,9.10
2017-10-12T15:17:27.332Z,9.17
2017-10-12T15:19:54.793Z,8.93
2017-10-12T15:22:22.260Z,11.70
2017-10-12T15:24:49.742Z,6.13
2017-10-12T15:27:17.212Z,11.53
2017-10-12T15:29:44.713Z,9.00
2017-10-12T15:32:12.192Z,20.83
2017-10-12T15:34:39.652Z,12.80
2017-10-12T15:37:07.099Z,14.37
2017-10-12T15:39:34.567Z,10.77
2017-10-12T15:42:02.034Z,10.20
2017-10-12T15:44:29.488Z,9.73
2017-10-12T15:46:56.959Z,13.17
2017-10-12T15:49:24.420Z,13.23
2017-10-12T15:51:51.896Z,17.37
2017-10-12T15:54:19.371Z,12.63
2017-10-12T15:56:47.594Z,14.13
2017-10-12T15:59:15.074Z,10.63
2017-10-12T16:01:42.536Z,11.30
2017-10-12T16:04:10.007Z,19.47
2017-10-12T16:06:38.267Z,10.93
2017-10-12T16:09:05.739Z,16.53
2017-10-12T16:11:33.972Z,19.43
2017-10-12T16:14:01.454Z,17.27
2017-10-12T16:16:28.910Z,22.97
2017-10-12T16:18:56.375Z,25.30
2017-10-12T16:21:23.863Z,19.43
2017-10-12T16:23:51.332Z,13.40
2017-10-12T16:26:18.782Z,21.90
2017-10-12T16:28:46.259Z,17.40
2017-10-12T16:31:13.714Z,18.70
2017-10-12T16:33:41.173Z,15.77
2017-10-12T16:36:08.653Z,24.70
2017-10-12T16:38:36.120Z,16.33
2017-10-12T16:41:03.580Z,19.77
2017-10-12T16:43:31.053Z,20.10
2017-10-12T16:45:59.276Z,22.97
2017-10-12T16:48:26.736Z,17.33
2017-10-12T16:50:54.246Z,10.97
2017-10-12T16:53:22.504Z,21.03
2017-10-12T16:55:50.751Z,16.70
2017-10-12T16:58:18.233Z,24.57
2017-10-12T17:00:45.688Z,17.30
2017-10-12T17:03:13.201Z,23.73
2017-10-12T17:05:40.664Z,24.03
2017-10-12T17:08:08.222Z,19.83
2017-10-12T17:13:03.158Z,17.83
2017-10-12T17:15:30.614Z,15.53
2017-10-12T17:17:59.002Z,19.27
2017-10-12T17:20:26.484Z,24.73
2017-10-12T17:22:53.972Z,9.93
2017-10-12T17:25:21.439Z,16.43
2017-10-12T17:27:48.917Z,21.40
2017-10-12T17:30:16.388Z,17.67
2017-10-12T17:32:43.852Z,13.17
2017-10-12T17:35:12.139Z,17.13
2017-10-12T17:37:40.376Z,11.77
2017-10-12T17:40:07.847Z,15.57
2017-10-12T17:42:36.179Z,9.40
2017-10-12T17:45:03.660Z,15.30
2017-10-12T17:47:31.127Z,21.03
2017-10-12T17:49:58.595Z,24.70
2017-10-12T17:52:26.055Z,14.17
2017-10-12T17:54:53.562Z,16.90
2017-10-12T17:57:21.038Z,18.30
2017-10-12T17:59:48.508Z,24.47
2017-10-12T18:02:15.992Z,19.70
2017-10-12T18:07:11.727Z,21.07
2017-10-12T18:09:40.702Z,17.00
2017-10-12T18:12:23.141Z,19.77
2017-10-12T18:14:35.639Z,19.37
2017-10-12T18:17:03.875Z,21.87
2017-10-12T18:19:31.361Z,20.80
2017-10-12T18:21:58.940Z,24.53
2017-10-12T18:24:27.179Z,26.30
2017-10-12T18:26:54.659Z,16.73
2017-10-12T18:29:22.119Z,19.00
2017-10-12T18:31:49.575Z,22.43
2017-10-12T18:34:17.064Z,22.40
2017-10-12T18:36:44.529Z,20.33
2017-10-12T18:39:11.994Z,20.23
2017-10-12T18:41:39.464Z,13.73
2017-10-12T18:44:06.938Z,15.20
2017-10-12T18:46:34.399Z,21.20
2017-10-12T18:49:01.886Z,16.20
2017-10-12T18:51:30.150Z,22.93
2017-10-12T18:53:58.435Z,25.50
2017-10-12T18:56:26.694Z,16.60
2017-10-12T18:58:54.160Z,18.20
2017-10-12T19:01:21.621Z,22.00
2017-10-12T19:03:49.895Z,21.37
2017-10-12T19:06:18.124Z,29.93
2017-10-12T19:08:45.583Z,28.17
2017-10-12T19:11:13.080Z,25.53
2017-10-12T19:13:41.360Z,20.80
2017-10-12T19:16:09.590Z,21.63
2017-10-12T19:18:37.087Z,20.47
2017-10-12T19:21:04.544Z,20.17
2017-10-12T19:23:32.780Z,23.97
2017-10-12T19:26:00.296Z,20.77
2017-10-12T19:30:56.024Z,28.00
2017-10-12T19:33:24.277Z,29.50
2017-10-12T19:35:51.731Z,15.80
2017-10-12T19:38:19.196Z,17.73
2017-10-12T19:43:14.157Z,32.97
2017-10-12T19:45:41.616Z,18.47
2017-10-12T19:48:09.121Z,17.80
2017-10-12T19:50:36.584Z,31.20
2017-10-12T19:53:04.811Z,20.33
2017-10-12T19:55:32.289Z,25.47
2017-10-12T19:57:59.808Z,17.07
2017-10-12T20:00:27.271Z,33.57
2017-10-12T20:02:54.784Z,16.97
2017-10-12T20:05:22.250Z,20.57
2017-10-12T20:07:51.423Z,19.60
2017-10-12T20:10:18.888Z,17.33
2017-10-12T20:12:46.444Z,27.57
2017-10-12T20:15:14.008Z,19.53
2017-10-12T20:17:41.498Z,24.47
2017-10-12T20:20:09.838Z,24.73
2017-10-12T20:22:39.084Z,19.67
2017-10-12T20:25:07.686Z,16.67
2017-10-12T20:27:36.836Z,12.17
2017-10-12T20:30:05.097Z,23.30
2017-10-12T20:32:33.831Z,21.40
2017-10-12T20:35:01.292Z,12.80
2017-10-12T20:37:28.824Z,16.53
2017-10-12T20:39:56.356Z,20.60
2017-10-12T20:42:23.822Z,15.80
2017-10-12T20:44:52.059Z,26.30
2017-10-12T20:47:19.527Z,25.07
2017-10-12T20:49:47.070Z,22.63
2017-10-12T20:52:14.655Z,27.23
2017-10-12T20:59:37.282Z,25.53
2017-10-12T21:02:05.514Z,24.23
2017-10-12T21:04:33.060Z,23.67
2017-10-12T21:07:00.630Z,14.63
2017-10-12T21:09:28.078Z,20.67
2017-10-12T21:11:55.640Z,25.80
2017-10-12T21:14:23.114Z,27.70
2017-10-12T21:16:51.387Z,20.63
2017-10-12T21:19:19.714Z,22.10
2017-10-12T21:21:47.303Z,24.90
2017-10-12T21:24:14.771Z,22.33
2017-10-12T21:26:42.328Z,28.70
2017-10-12T21:29:09.816Z,24.27
2017-10-12T21:31:37.346Z,22.87
2017-10-12T21:34:05.573Z,19.97
2017-10-12T21:36:33.052Z,23.63
2017-10-12T21:39:00.560Z,24.07
2017-10-12T21:41:28.068Z,30.77
2017-10-12T21:43:55.646Z,22.30
2017-10-12T21:46:23.115Z,21.63
2017-10-12T21:48:51.359Z,26.40
2017-10-12T21:51:18.861Z,29.03
2017-10-12T21:53:47.088Z,16.93
2017-10-12T21:56:14.566Z,19.93
2017-10-12T21:58:42.085Z,24.83
2017-10-12T22:01:09.575Z,13.83
2017-10-12T22:03:37.032Z,28.70
2017-10-12T22:06:04.586Z,20.53
2017-10-12T22:08:32.043Z,31.77
2017-10-12T22:10:59.506Z,25.20
2017-10-12T22:13:26.979Z,30.30
2017-10-12T22:15:55.212Z,17.07
2017-10-12T22:18:22.667Z,18.50
2017-10-12T22:20:50.273Z,25.30
2017-10-12T22:23:17.820Z,19.40
2017-10-12T22:25:45.368Z,16.33
2017-10-12T22:28:12.860Z,27.60
2017-10-12T22:30:40.391Z,18.80
2017-10-12T22:33:07.855Z,24.77
2017-10-12T22:35:36.091Z,26.13
2017-10-12T22:38:03.558Z,22.90
2017-10-12T22:40:31.038Z,26.03
2017-10-12T22:42:58.511Z,22.53
2017-10-12T22:45:26.760Z,27.60
2017-10-12T22:47:54.231Z,25.80
2017-10-12T22:50:21.700Z,21.77
2017-10-12T22:52:49.931Z,23.37
2017-10-12T22:55:17.395Z,16.67
2017-10-12T22:57:44.872Z,28.53
2017-10-12T23:00:12.432Z,35.93
2017-10-12T23:02:39.888Z,20.00
2017-10-12T23:05:07.360Z,36.63
2017-10-12T23:07:35.596Z,32.17
2017-10-12T23:10:03.047Z,25.37
2017-10-12T23:12:30.525Z,22.57
2017-10-12T23:14:58.854Z,37.67
2017-10-12T23:17:26.359Z,19.23
2017-10-12T23:19:53.840Z,21.77
2017-10-12T23:22:22.075Z,21.40
2017-10-12T23:24:49.536Z,34.17
2017-10-12T23:27:17.002Z,30.43
2017-10-12T23:29:44.466Z,22.13
2017-10-12T23:32:12.004Z,37.90
2017-10-12T23:34:39.494Z,40.40
2017-10-12T23:37:07.717Z,31.70
2017-10-12T23:39:35.171Z,32.00
2017-10-12T23:42:02.654Z,30.40
2017-10-12T23:44:30.123Z,21.83
2017-10-12T23:46:57.611Z,21.50
2017-10-12T23:49:25.092Z,25.33
2017-10-12T23:51:52.559Z,28.93
2017-10-12T23:54:20.037Z,33.90
2017-10-12T23:56:47.611Z,21.03
2017-10-12T23:59:15.079Z,32.33
